Time;durP1;ratioP1;P1;durP2;ratioP2;P2;SDS_P1;SDS_P2;PMS_P1;PMS_P2;Temp;Humidity;BMP_temperature;BMP_pressure;BME280_temperature;BME280_humidity;BME280_pressure;Samples;Min_cycle;Max_cycle;Signal;HPM_P1;HPM_P2
2022/04/26 03:36:41;;;;;;;18.95;9.13;;;6.90;99.90;;;;;;5041122;28;20049;-78
2022/04/26 03:39:06;;;;;;;20.23;8.63;;;7.00;99.90;;;;;;5030906;28;20124;-78
2022/04/26 03:41:33;;;;;;;15.75;8.57;;;7.00;99.90;;;;;;5031058;28;20048;-78
2022/04/26 03:43:59;;;;;;;18.95;9.57;;;7.00;99.90;;;;;;5027072;28;20492;-78
2022/04/26 03:46:24;;;;;;;12.45;7.88;;;7.00;99.90;;;;;;5041721;28;20033;-78
2022/04/26 03:48:50;;;;;;;12.18;7.93;;;7.10;99.90;;;;;;5050535;28;20068;-78
2022/04/26 03:51:16;;;;;;;12.70;7.35;;;7.10;99.90;;;;;;5050404;28;20033;-78
2022/04/26 03:53:41;;;;;;;18.50;8.27;;;7.10;99.90;;;;;;5046483;28;20094;-78
2022/04/26 03:56:07;;;;;;;15.18;7.78;;;7.10;99.90;;;;;;5040421;28;20091;-78
2022/04/26 03:58:33;;;;;;;14.75;7.43;;;7.10;99.90;;;;;;5039737;28;20045;-78
2022/04/26 04:00:59;;;;;;;16.40;8.05;;;7.20;99.90;;;;;;5043209;28;20041;-78
2022/04/26 04:03:26;;;;;;;16.05;8.75;;;7.20;99.90;;;;;;5030032;28;20049;-78
2022/04/26 04:05:51;;;;;;;10.07;6.90;;;7.20;99.90;;;;;;5020962;28;20033;-78
2022/04/26 04:08:17;;;;;;;14.77;8.30;;;7.20;99.90;;;;;;5033346;28;20075;-78
2022/04/26 04:10:43;;;;;;;15.88;8.18;;;7.10;99.90;;;;;;5038151;28;20037;-78
2022/04/26 04:13:08;;;;;;;15.48;8.25;;;7.10;99.90;;;;;;5048742;28;20043;-78
2022/04/26 04:15:34;;;;;;;15.52;6.45;;;7.10;99.90;;;;;;5038448;28;20033;-78
2022/04/26 04:17:59;;;;;;;12.98;7.93;;;7.10;99.90;;;;;;5040003;28;20388;-78
2022/04/26 04:20:25;;;;;;;14.95;7.25;;;7.10;99.90;;;;;;5030151;28;20040;-78
2022/04/26 04:22:53;;;;;;;16.00;8.10;;;7.10;99.90;;;;;;5036951;28;20030;-78
2022/04/26 04:25:20;;;;;;;15.43;7.60;;;7.10;99.90;;;;;;5032002;28;20038;-77
2022/04/26 04:27:45;;;;;;;15.52;7.32;;;7.10;99.90;;;;;;5046084;28;20043;-78
2022/04/26 04:30:11;;;;;;;12.43;6.75;;;7.10;99.90;;;;;;5051062;28;20041;-78
2022/04/26 04:32:37;;;;;;;15.00;6.72;;;7.10;99.90;;;;;;5044739;28;20052;-78
2022/04/26 04:35:04;;;;;;;11.30;7.05;;;7.10;99.90;;;;;;5039683;28;20033;-78
2022/04/26 04:37:30;;;;;;;12.45;7.35;;;7.10;99.90;;;;;;5040689;28;20041;-78
2022/04/26 04:39:55;;;;;;;14.40;7.03;;;7.10;99.90;;;;;;5034889;28;20541;-78
2022/04/26 04:42:21;;;;;;;11.32;5.93;;;7.10;99.90;;;;;;5034275;28;20049;-78
2022/04/26 04:44:47;;;;;;;11.55;6.85;;;7.10;99.90;;;;;;5040279;28;20037;-78
2022/04/26 04:47:12;;;;;;;12.27;7.60;;;7.20;99.90;;;;;;5045724;28;20051;-78
2022/04/26 04:49:38;;;;;;;19.63;7.05;;;7.20;99.90;;;;;;5034789;28;20480;-78
2022/04/26 04:52:04;;;;;;;15.27;6.88;;;7.30;99.90;;;;;;5033974;28;20099;-78
2022/04/26 04:54:29;;;;;;;15.68;7.90;;;7.30;99.90;;;;;;5031845;28;20148;-79
2022/04/26 04:56:55;;;;;;;16.30;7.07;;;7.40;99.90;;;;;;5042625;28;20133;-78
2022/04/26 04:59:21;;;;;;;16.77;7.57;;;7.40;99.90;;;;;;5035903;28;20049;-78
2022/04/26 05:01:46;;;;;;;15.93;7.65;;;7.50;99.90;;;;;;5028656;28;20040;-77
2022/04/26 05:04:12;;;;;;;14.40;7.13;;;7.50;99.90;;;;;;5047826;28;20134;-79
2022/04/26 05:06:37;;;;;;;15.00;7.40;;;7.60;99.90;;;;;;5044855;28;20064;-78
2022/04/26 05:09:03;;;;;;;11.23;6.68;;;7.60;99.90;;;;;;5016773;28;20084;-78
2022/04/26 05:11:28;;;;;;;14.93;5.70;;;7.70;99.90;;;;;;5033724;28;20041;-78
2022/04/26 05:13:54;;;;;;;14.30;6.63;;;7.70;99.90;;;;;;5032042;28;20034;-78
2022/04/26 05:16:20;;;;;;;10.98;7.50;;;7.80;99.90;;;;;;5044732;28;20044;-78
2022/04/26 05:18:45;;;;;;;11.43;5.00;;;7.80;99.90;;;;;;5053369;28;20087;-78
2022/04/26 05:21:15;;;;;;;19.05;5.35;;;7.90;99.90;;;;;;5043091;28;20045;-78
2022/04/26 05:26:25;;;;;;;17.75;5.63;;;8.00;99.90;;;;;;5034276;28;20092;-78
2022/04/26 05:28:51;;;;;;;9.75;5.88;;;8.00;99.90;;;;;;5016739;28;20098;-78
2022/04/26 05:31:17;;;;;;;11.18;4.78;;;8.10;99.90;;;;;;5033313;28;20042;-78
2022/04/26 05:33:42;;;;;;;10.05;4.55;;;8.10;99.90;;;;;;5031760;28;20057;-78
2022/04/26 05:36:08;;;;;;;9.77;4.35;;;8.10;99.90;;;;;;5040988;28;20132;-78
2022/04/26 05:38:34;;;;;;;12.07;3.70;;;8.10;99.90;;;;;;5033042;28;20266;-78
2022/04/26 05:41:00;;;;;;;5.50;4.07;;;8.10;99.90;;;;;;5032589;28;20045;-78
2022/04/26 05:43:26;;;;;;;11.23;5.18;;;8.10;99.90;;;;;;5016565;28;20052;-78
2022/04/26 05:45:52;;;;;;;7.15;4.55;;;8.10;99.90;;;;;;5039950;28;20392;-78
2022/04/26 05:48:17;;;;;;;11.65;4.85;;;8.20;99.90;;;;;;5051223;28;20083;-78
2022/04/26 05:50:43;;;;;;;16.67;4.82;;;8.20;99.90;;;;;;5039346;28;20025;-78
2022/04/26 05:53:09;;;;;;;11.60;4.60;;;8.30;99.90;;;;;;5042097;28;20041;-78
2022/04/26 05:55:34;;;;;;;10.85;5.00;;;8.30;99.90;;;;;;5035291;28;20037;-78
2022/04/26 05:58:02;;;;;;;10.18;4.47;;;8.40;99.90;;;;;;5034976;28;20042;-78
2022/04/26 06:00:27;;;;;;;7.80;4.25;;;8.40;99.90;;;;;;5040520;28;20102;-78
2022/04/26 06:02:53;;;;;;;12.32;4.55;;;8.50;99.90;;;;;;5051002;28;20041;-78
2022/04/26 06:05:22;;;;;;;12.68;4.75;;;8.60;99.90;;;;;;5044030;28;20039;-78
2022/04/26 06:07:48;;;;;;;8.27;3.70;;;8.60;99.90;;;;;;5036165;28;20030;-78
2022/04/26 06:10:13;;;;;;;8.18;4.43;;;8.80;99.90;;;;;;5022968;28;20045;-78
2022/04/26 06:12:41;;;;;;;10.98;5.63;;;8.90;99.90;;;;;;5009957;28;20044;-78
2022/04/26 06:15:08;;;;;;;9.65;5.03;;;9.00;99.90;;;;;;5016781;28;20041;-78
2022/04/26 06:17:33;;;;;;;15.52;6.32;;;9.10;99.90;;;;;;5038400;28;20552;-78
2022/04/26 06:19:59;;;;;;;9.35;4.43;;;9.20;99.90;;;;;;5032353;28;20041;-79
2022/04/26 06:22:25;;;;;;;10.52;4.72;;;9.30;99.90;;;;;;5032113;28;20444;-78
2022/04/26 06:24:52;;;;;;;8.10;4.18;;;9.50;99.90;;;;;;5012469;28;20037;-78
2022/04/26 06:27:18;;;;;;;6.03;4.03;;;9.70;99.90;;;;;;5040521;28;20095;-78
2022/04/26 06:29:44;;;;;;;10.57;4.25;;;9.90;99.90;;;;;;5032571;28;20427;-78
2022/04/26 06:32:10;;;;;;;9.30;4.15;;;10.10;99.90;;;;;;5032531;28;20434;-78
2022/04/26 06:34:36;;;;;;;11.30;5.40;;;10.20;99.90;;;;;;5030448;28;20037;-78
2022/04/26 06:37:01;;;;;;;11.02;3.80;;;10.20;99.90;;;;;;5029721;28;20156;-78
2022/04/26 06:39:28;;;;;;;13.35;4.72;;;10.30;99.90;;;;;;5044429;28;20076;-77
2022/04/26 06:41:53;;;;;;;6.82;3.92;;;10.20;99.90;;;;;;5043418;28;20068;-77
2022/04/26 06:44:19;;;;;;;9.10;5.05;;;10.10;99.90;;;;;;5045906;28;20084;-78
2022/04/26 06:46:44;;;;;;;5.75;3.88;;;10.00;99.90;;;;;;5038940;28;20064;-77
2022/04/26 06:49:10;;;;;;;12.15;4.45;;;9.90;99.90;;;;;;5039247;28;20044;-77
2022/04/26 06:51:40;;;;;;;18.60;5.45;;;9.90;99.90;;;;;;5036284;28;20111;-77
2022/04/26 06:54:07;;;;;;;9.20;4.65;;;10.00;99.90;;;;;;5030284;28;20068;-77
2022/04/26 06:56:32;;;;;;;7.07;3.15;;;10.00;99.90;;;;;;5039612;28;20045;-78
2022/04/26 06:58:58;;;;;;;8.27;3.60;;;10.00;99.90;;;;;;5049118;28;20067;-77
2022/04/26 07:01:24;;;;;;;7.38;3.45;;;10.00;99.90;;;;;;5049570;28;20049;-77
2022/04/26 07:03:49;;;;;;;9.35;4.72;;;10.00;99.90;;;;;;5027305;28;20041;-77
2022/04/26 07:06:15;;;;;;;5.53;2.40;;;9.90;99.90;;;;;;5038193;28;20086;-77
2022/04/26 07:08:40;;;;;;;6.28;2.88;;;9.90;99.90;;;;;;5024923;28;20042;-77
2022/04/26 07:11:06;;;;;;;5.75;2.33;;;9.80;99.90;;;;;;5010216;28;20046;-78
2022/04/26 07:13:32;;;;;;;6.63;2.80;;;9.70;99.90;;;;;;5020711;28;20540;-78
2022/04/26 07:15:57;;;;;;;7.00;2.53;;;9.70;99.90;;;;;;5006922;28;20026;-77
2022/04/26 07:18:23;;;;;;;5.30;2.38;;;9.60;99.90;;;;;;5023304;28;20128;-76
2022/04/26 07:20:48;;;;;;;5.47;2.83;;;9.60;99.90;;;;;;5023556;28;20485;-76
2022/04/26 07:23:14;;;;;;;7.25;2.75;;;9.60;99.90;;;;;;5024052;28;20120;-78
2022/04/26 07:25:40;;;;;;;7.82;2.90;;;9.50;99.90;;;;;;5024711;28;20096;-77
2022/04/26 07:28:06;;;;;;;6.95;3.28;;;9.60;99.90;;;;;;5036783;28;20060;-78
2022/04/26 07:30:35;;;;;;;6.50;3.38;;;9.60;99.90;;;;;;5025253;28;20029;-78
2022/04/26 07:35:52;;;;;;;3.88;2.70;;;9.70;99.90;;;;;;5024326;28;20041;-77
2022/04/26 07:38:17;;;;;;;6.85;2.83;;;9.70;99.90;;;;;;5023584;28;20096;-77
2022/04/26 07:40:43;;;;;;;5.80;2.50;;;9.70;99.90;;;;;;5023237;28;20636;-78
2022/04/26 07:43:09;;;;;;;7.25;2.85;;;9.80;99.90;;;;;;5038011;28;20045;-78
2022/04/26 07:45:39;;;;;;;6.40;2.88;;;10.10;99.90;;;;;;5025275;28;20529;-79
2022/04/26 07:48:07;;;;;;;6.13;2.20;;;10.60;99.90;;;;;;5005826;28;20048;-78
2022/04/26 07:50:33;;;;;;;3.55;1.38;;;10.70;99.90;;;;;;5026711;28;20476;-78
2022/04/26 07:53:00;;;;;;;15.65;9.57;;;10.80;99.90;;;;;;5026007;28;20048;-78
2022/04/26 07:55:26;;;;;;;67.57;42.10;;;10.70;99.90;;;;;;5014815;28;20372;-78
2022/04/26 07:57:52;;;;;;;20.20;11.77;;;10.70;99.90;;;;;;5033480;28;20064;-78
2022/04/26 08:00:17;;;;;;;8.40;1.95;;;10.50;99.90;;;;;;5032153;28;20041;-77
2022/04/26 08:02:43;;;;;;;6.55;2.17;;;10.40;99.90;;;;;;5031420;28;20045;-78
2022/04/26 08:05:09;;;;;;;6.80;2.70;;;10.40;99.90;;;;;;5033464;28;20079;-77
2022/04/26 08:07:39;;;;;;;32.53;16.30;;;10.50;99.90;;;;;;5026832;28;20451;-77
2022/04/26 08:10:09;;;;;;;132.65;81.75;;;10.50;99.90;;;;;;5023985;28;20054;-77
2022/04/26 08:12:36;;;;;;;16.38;7.88;;;10.40;99.90;;;;;;5024097;28;20167;-76
2022/04/26 08:15:02;;;;;;;48.50;35.17;;;10.40;99.90;;;;;;5024157;28;20052;-78
2022/04/26 08:17:28;;;;;;;5.50;2.67;;;10.40;99.90;;;;;;5032641;28;20037;-77
2022/04/26 08:19:53;;;;;;;5.82;2.92;;;10.50;99.90;;;;;;5039981;28;20045;-77
2022/04/26 08:22:19;;;;;;;4.50;1.70;;;10.70;99.90;;;;;;5030110;28;20099;-77
2022/04/26 08:27:33;;;;;;;3.60;1.27;;;10.90;99.90;;;;;;5015064;28;20042;-77
2022/04/26 08:30:00;;;;;;;5.25;1.52;;;10.90;99.90;;;;;;5033395;28;20741;-77
2022/04/26 08:32:26;;;;;;;5.80;1.65;;;10.90;99.90;;;;;;5036821;28;20037;-77
2022/04/26 08:34:58;;;;;;;5.05;1.65;;;10.90;99.90;;;;;;5035476;28;20072;-77
2022/04/26 08:37:24;;;;;;;5.90;1.45;;;11.00;99.90;;;;;;5030784;28;20124;-77
2022/04/26 08:39:52;;;;;;;4.25;1.70;;;11.00;99.90;;;;;;5028742;28;20137;-75
2022/04/26 08:42:36;;;;;;;6.35;1.95;;;11.10;99.90;;;;;;5029885;28;20061;-75
2022/04/26 08:45:08;;;;;;;65.28;39.45;;;11.10;99.90;;;;;;5032217;28;20041;-75
2022/04/26 08:53:04;;;;;;;258.83;188.10;;;11.10;99.90;;;;;;5040892;28;20044;-77
2022/04/26 08:55:33;;;;;;;15.00;7.20;;;11.20;99.90;;;;;;5031012;28;20464;-75
2022/04/26 08:57:59;;;;;;;4.20;1.88;;;11.70;99.90;;;;;;5036223;28;20033;-75
2022/04/26 09:00:25;;;;;;;7.43;1.98;;;12.30;99.90;;;;;;5022550;28;20040;-75
2022/04/26 09:03:04;;;;;;;4.57;1.63;;;12.60;99.90;;;;;;5049742;28;20091;-75
2022/04/26 09:05:31;;;;;;;4.75;2.00;;;12.90;99.90;;;;;;5032530;28;20084;-75
2022/04/26 09:07:58;;;;;;;3.78;1.58;;;13.20;99.90;;;;;;5029445;28;20402;-76
2022/04/26 09:10:24;;;;;;;6.20;1.60;;;13.50;99.90;;;;;;5029529;28;20034;-76
2022/04/26 09:13:08;;;;;;;5.50;1.70;;;13.70;99.90;;;;;;5013482;28;20038;-77
2022/04/26 09:15:55;;;;;;;5.50;1.23;;;14.10;97.10;;;;;;5013617;28;20076;-76
2022/04/26 09:18:28;;;;;;;5.03;1.48;;;14.30;97.20;;;;;;5016912;28;20049;-76
2022/04/26 09:21:07;;;;;;;8.88;1.17;;;14.50;96.20;;;;;;5032147;28;20080;-76
2022/04/26 09:23:33;;;;;;;4.03;1.30;;;14.60;96.70;;;;;;5032515;28;20056;-76
2022/04/26 09:25:58;;;;;;;3.72;1.30;;;14.90;95.30;;;;;;5034835;28;20046;-76
2022/04/26 09:28:26;;;;;;;4.55;1.70;;;15.30;94.70;;;;;;5042554;28;20075;-77
2022/04/26 09:30:53;;;;;;;5.35;1.15;;;15.30;93.90;;;;;;5038408;28;20364;-76
2022/04/26 09:33:40;;;;;;;5.95;0.93;;;15.00;92.30;;;;;;5036063;28;20391;-76
2022/04/26 09:36:10;;;;;;;5.38;2.05;;;14.90;89.80;;;;;;5033418;28;20191;-76
2022/04/26 09:38:41;;;;;;;4.63;1.77;;;14.90;91.50;;;;;;5032919;28;20041;-77
2022/04/26 09:41:09;;;;;;;3.42;1.58;;;15.00;91.20;;;;;;5030867;28;20049;-77
2022/04/26 09:43:36;;;;;;;3.25;1.20;;;15.30;90.30;;;;;;5042738;28;20041;-77
2022/04/26 09:46:04;;;;;;;7.65;1.90;;;15.60;90.10;;;;;;5034255;28;20068;-77
2022/04/26 09:48:36;;;;;;;5.28;1.08;;;15.70;90.50;;;;;;5032217;28;20098;-74
2022/04/26 09:51:08;;;;;;;5.60;1.55;;;15.90;87.90;;;;;;5040146;28;20513;-76
2022/04/26 09:53:34;;;;;;;6.07;1.45;;;15.80;87.90;;;;;;5047702;28;20040;-76
2022/04/26 09:56:01;;;;;;;8.35;1.60;;;16.00;87.30;;;;;;5037535;28;20052;-76
2022/04/26 09:58:29;;;;;;;4.60;1.10;;;16.40;85.00;;;;;;5040752;28;20045;-76
2022/04/26 10:01:00;;;;;;;3.85;1.30;;;16.50;82.60;;;;;;5031431;28;21544;-76
2022/04/26 10:03:37;;;;;;;4.05;1.15;;;16.50;83.30;;;;;;5036629;28;20163;-76
2022/04/26 10:06:06;;;;;;;5.45;1.10;;;16.50;77.30;;;;;;5043732;28;20044;-76
2022/04/26 10:08:36;;;;;;;3.92;1.60;;;16.20;73.30;;;;;;5032056;28;20536;-75
2022/04/26 10:11:03;;;;;;;4.93;1.83;;;15.90;76.90;;;;;;5031785;28;20041;-76
2022/04/26 10:13:36;;;;;;;7.38;1.40;;;15.80;80.70;;;;;;5022221;28;20115;-76
2022/04/26 10:16:15;;;;;;;3.47;1.17;;;15.90;82.20;;;;;;5037787;28;20041;-76
2022/04/26 10:18:45;;;;;;;5.78;1.52;;;16.00;73.10;;;;;;5034044;28;20558;-76
2022/04/26 10:21:32;;;;;;;4.80;1.58;;;15.70;80.60;;;;;;5044148;28;20091;-75
2022/04/26 10:24:01;;;;;;;4.55;2.25;;;15.30;80.60;;;;;;5048994;28;20518;-75
2022/04/26 10:26:28;;;;;;;6.03;2.47;;;14.60;85.30;;;;;;5019364;28;20041;-75
2022/04/26 10:29:15;;;;;;;7.07;1.27;;;14.40;87.40;;;;;;5038118;28;20060;-75
2022/04/26 10:31:47;;;;;;;6.78;1.58;;;14.40;86.90;;;;;;5033744;28;20067;-75
2022/04/26 10:34:31;;;;;;;6.35;2.03;;;14.20;89.20;;;;;;5042496;28;20529;-75
2022/04/26 10:37:06;;;;;;;4.70;2.08;;;14.40;86.70;;;;;;5011800;28;20038;-76
2022/04/26 10:39:37;;;;;;;4.85;1.45;;;14.80;88.90;;;;;;5012078;28;20049;-75
2022/04/26 10:42:07;;;;;;;5.47;1.77;;;15.30;82.10;;;;;;5015619;28;20495;-76
2022/04/26 10:44:39;;;;;;;4.82;1.60;;;15.50;82.90;;;;;;5031540;28;20037;-75
2022/04/26 10:47:04;;;;;;;4.53;1.50;;;16.00;78.90;;;;;;5031142;28;20128;-75
2022/04/26 10:49:33;;;;;;;5.80;1.38;;;16.00;78.40;;;;;;5037393;28;20602;-75
2022/04/26 10:52:23;;;;;;;4.38;1.33;;;15.80;77.10;;;;;;5039634;28;20072;-75
2022/04/26 10:54:55;;;;;;;3.55;1.20;;;15.50;75.20;;;;;;5021132;28;20041;-75
2022/04/26 10:57:23;;;;;;;5.30;1.52;;;15.30;80.60;;;;;;5026236;28;20132;-76
2022/04/26 10:59:59;;;;;;;4.55;1.92;;;15.50;81.50;;;;;;5037470;28;20559;-76
2022/04/26 11:02:27;;;;;;;3.75;2.10;;;15.90;77.60;;;;;;5013349;28;20049;-75
2022/04/26 11:04:59;;;;;;;3.67;1.42;;;16.30;76.90;;;;;;5027124;28;20034;-75
2022/04/26 11:07:27;;;;;;;4.40;1.98;;;16.60;74.30;;;;;;5034663;28;20183;-75
2022/04/26 11:09:54;;;;;;;3.75;1.95;;;16.60;72.10;;;;;;5036117;28;20171;-75
2022/04/26 11:12:22;;;;;;;4.07;1.33;;;16.60;72.30;;;;;;5030453;28;20041;-75
2022/04/26 11:14:49;;;;;;;2.78;1.02;;;16.10;67.50;;;;;;5038433;28;20523;-75
2022/04/26 11:17:16;;;;;;;2.38;1.27;;;15.40;66.90;;;;;;5027554;28;20041;-74
2022/04/26 11:19:55;;;;;;;2.40;1.27;;;14.90;67.30;;;;;;5035778;28;20076;-74
2022/04/26 11:22:23;;;;;;;3.55;1.85;;;15.20;73.40;;;;;;5036851;28;20056;-75
2022/04/26 11:30:31;;;;;;;6.13;2.60;;;16.60;70.00;;;;;;5035676;28;20065;-75
2022/04/26 11:33:02;;;;;;;3.05;1.63;;;16.40;66.40;;;;;;5040056;28;20112;-76
2022/04/26 11:35:29;;;;;;;3.45;1.50;;;15.90;69.00;;;;;;5040543;28;20037;-76
2022/04/26 11:38:03;;;;;;;3.20;1.30;;;15.50;71.60;;;;;;5026201;28;20084;-76
2022/04/26 11:40:31;;;;;;;4.28;1.85;;;15.70;71.50;;;;;;5026450;28;20037;-76
2022/04/26 11:42:58;;;;;;;8.13;5.50;;;16.20;73.70;;;;;;5028379;28;20041;-76
2022/04/26 11:45:30;;;;;;;9.30;4.20;;;17.10;66.20;;;;;;5032840;28;20086;-77
2022/04/26 11:47:56;;;;;;;28.83;18.00;;;17.60;62.80;;;;;;5036434;28;20036;-77
2022/04/26 11:50:28;;;;;;;32.17;20.35;;;17.80;62.30;;;;;;5032791;28;20044;-77
2022/04/26 11:53:00;;;;;;;19.15;13.90;;;18.10;60.20;;;;;;5034225;28;20037;-76
2022/04/26 11:55:43;;;;;;;125.50;97.78;;;18.30;58.80;;;;;;5033139;28;20038;-77
2022/04/26 11:58:18;;;;;;;6.63;4.47;;;17.50;57.60;;;;;;5033694;28;20041;-76
2022/04/26 12:00:52;;;;;;;2.58;1.52;;;17.00;59.80;;;;;;5023375;28;20044;-76
2022/04/26 12:03:19;;;;;;;3.22;1.75;;;16.70;60.10;;;;;;5022798;28;20049;-76
2022/04/26 12:05:48;;;;;;;3.42;1.83;;;16.80;62.20;;;;;;5004809;28;103825;-76
2022/04/26 12:08:15;;;;;;;4.63;1.52;;;17.00;62.50;;;;;;5040663;28;20045;-77
2022/04/26 12:10:40;;;;;;;3.45;1.42;;;17.40;61.90;;;;;;5030158;28;20080;-76
2022/04/26 12:13:06;;;;;;;2.72;1.35;;;17.80;60.80;;;;;;5030529;28;20106;-76
2022/04/26 12:15:38;;;;;;;3.58;1.45;;;18.20;58.50;;;;;;5030001;28;20044;-76
2022/04/26 12:18:13;;;;;;;2.63;1.38;;;18.40;56.90;;;;;;5030206;28;20042;-76
2022/04/26 12:20:59;;;;;;;;;;;18.00;57.20;;;;;;5030220;28;20106;-77
2022/04/26 12:23:26;;;;;;;;;;;17.80;55.40;;;;;;5021610;28;19932;-78
2022/04/26 12:25:53;;;;;;;4.60;0.90;;;17.40;55.70;;;;;;5029897;28;19947;-77
2022/04/26 12:28:18;;;;;;;3.65;1.17;;;17.60;57.50;;;;;;5013719;28;20042;-77
2022/04/26 12:30:44;;;;;;;2.63;1.48;;;18.00;57.20;;;;;;5030390;28;20037;-77
2022/04/26 12:33:10;;;;;;;4.47;1.20;;;18.40;56.30;;;;;;5030088;28;20041;-77
2022/04/26 12:35:36;;;;;;;3.95;1.35;;;18.40;55.60;;;;;;5028551;28;20056;-79
2022/04/26 12:38:09;;;;;;;3.65;1.67;;;18.00;55.40;;;;;;5026226;28;20107;-78
2022/04/26 12:40:36;;;;;;;3.05;1.35;;;17.60;55.40;;;;;;5029968;28;20372;-77
2022/04/26 12:43:02;;;;;;;3.67;1.25;;;17.30;55.90;;;;;;5031315;28;20052;-77
2022/04/26 12:45:28;;;;;;;6.38;2.17;;;17.30;56.40;;;;;;5030116;28;20515;-77
2022/04/26 12:50:53;;;;;;;6.03;2.35;;;17.10;57.00;;;;;;5030084;28;20057;-77
2022/04/26 12:53:28;;;;;;;3.13;1.15;;;16.80;57.80;;;;;;5034115;28;20056;-78
2022/04/26 12:56:05;;;;;;;5.43;1.63;;;17.20;59.70;;;;;;5033556;28;20049;-77
2022/04/26 12:58:39;;;;;;;5.60;1.67;;;17.80;57.40;;;;;;5033765;28;20049;-77
2022/04/26 13:01:06;;;;;;;2.60;1.00;;;18.10;55.00;;;;;;5033544;28;20037;-78
2022/04/26 13:03:33;;;;;;;4.47;1.50;;;18.10;55.80;;;;;;5026348;28;20053;-77
2022/04/26 13:06:07;;;;;;;5.00;0.80;;;18.10;53.80;;;;;;5013708;28;20132;-77
2022/04/26 13:08:34;;;;;;;4.72;1.73;;;18.30;53.10;;;;;;5013801;28;20050;-77
2022/04/26 13:11:00;;;;;;;4.57;1.23;;;18.70;55.10;;;;;;4997633;28;20046;-78
2022/04/26 13:13:27;;;;;;;2.65;1.13;;;18.90;53.00;;;;;;5013722;28;20038;-78
2022/04/26 13:15:53;;;;;;;4.43;1.27;;;18.50;52.10;;;;;;5013677;28;20050;-76
2022/04/26 13:18:19;;;;;;;4.22;1.40;;;18.10;53.10;;;;;;5013429;28;20042;-76
2022/04/26 13:20:48;;;;;;;4.47;1.50;;;17.50;53.30;;;;;;5013609;28;20064;-76
2022/04/26 13:23:16;;;;;;;2.53;1.02;;;17.00;53.30;;;;;;5013552;28;20049;-76
2022/04/26 13:25:42;;;;;;;3.72;0.95;;;17.40;54.10;;;;;;5013208;28;20042;-76
2022/04/26 13:28:08;;;;;;;4.25;1.35;;;17.40;53.70;;;;;;5013424;28;20052;-76
2022/04/26 13:30:34;;;;;;;2.55;1.13;;;17.30;53.60;;;;;;5032015;28;20167;-77
2022/04/26 13:33:01;;;;;;;4.25;1.20;;;17.40;54.80;;;;;;5033002;28;20151;-77
2022/04/26 13:35:27;;;;;;;5.70;1.60;;;18.00;54.10;;;;;;5032971;28;20045;-76
2022/04/26 13:37:55;;;;;;;2.15;0.93;;;18.20;52.90;;;;;;5032796;28;20496;-76
2022/04/26 13:40:21;;;;;;;3.05;1.60;;;18.50;52.30;;;;;;5016418;28;20072;-76
2022/04/26 13:42:47;;;;;;;2.55;1.02;;;19.10;53.10;;;;;;5016559;28;20384;-77
2022/04/26 13:45:14;;;;;;;3.38;1.15;;;19.70;52.30;;;;;;5030449;28;20132;-76
2022/04/26 13:47:40;;;;;;;2.20;0.95;;;19.70;51.40;;;;;;5012919;28;20049;-76
2022/04/26 13:50:07;;;;;;;2.45;1.35;;;18.90;50.60;;;;;;5013069;28;20464;-76
2022/04/26 13:52:32;;;;;;;1.70;1.10;;;18.20;51.20;;;;;;4996821;28;20073;-76
2022/04/26 13:54:58;;;;;;;3.50;3.13;;;18.00;51.50;;;;;;4996488;28;20169;-76
2022/04/26 13:57:24;;;;;;;2.90;1.80;;;17.80;51.50;;;;;;5026457;28;20129;-77
2022/04/26 13:59:49;;;;;;;4.03;1.17;;;17.20;52.00;;;;;;5032550;28;20120;-76
2022/04/26 14:02:15;;;;;;;3.22;0.75;;;17.10;54.00;;;;;;5032412;28;20130;-76
2022/04/26 14:04:42;;;;;;;2.95;1.10;;;17.70;53.50;;;;;;5063978;23;20383;-82
2022/04/26 14:07:08;;;;;;;6.43;4.95;;;18.10;51.80;;;;;;5077614;28;20100;-80
2022/04/26 14:09:34;;;;;;;5.50;1.48;;;18.80;51.10;;;;;;5075202;28;20501;-79
2022/04/26 14:11:59;;;;;;;7.72;4.63;;;18.90;50.30;;;;;;5058947;28;20049;-80
2022/04/26 14:22:41;;;;;;;2.13;0.80;;;19.30;49.30;;;;;;5075975;28;20494;-80
2022/04/26 14:25:08;;;;;;;2.97;2.13;;;19.80;49.30;;;;;;5060671;28;20166;-79
2022/04/26 14:27:38;;;;;;;3.15;1.20;;;20.00;48.90;;;;;;5065804;28;20040;-80
2022/04/26 14:30:07;;;;;;;5.60;1.10;;;20.00;48.90;;;;;;5073491;28;20221;-79
2022/04/26 14:32:33;;;;;;;2.72;1.00;;;20.00;49.10;;;;;;5073714;28;20040;-80
2022/04/26 14:34:58;;;;;;;4.80;1.38;;;20.00;49.80;;;;;;5074303;28;20133;-80
2022/04/26 14:37:24;;;;;;;4.40;1.08;;;20.20;47.90;;;;;;5061101;28;20032;-80
2022/04/26 14:39:50;;;;;;;3.75;0.77;;;20.50;47.40;;;;;;5067212;28;20040;-80
2022/04/26 14:42:17;;;;;;;3.15;1.55;;;20.80;47.20;;;;;;5071359;28;20486;-81
2022/04/26 14:44:46;;;;;;;2.10;0.60;;;21.10;47.20;;;;;;5056240;28;20036;-80
2022/04/26 14:47:14;;;;;;;3.97;0.60;;;21.30;45.90;;;;;;5073188;28;20044;-80
2022/04/26 14:49:43;;;;;;;2.58;2.38;;;21.20;46.60;;;;;;5072751;28;20053;-82
2022/04/26 14:52:18;;;;;;;5.50;1.17;;;21.50;46.80;;;;;;5074304;28;20048;-81
2022/04/26 14:54:44;;;;;;;2.58;0.80;;;21.50;46.40;;;;;;5074437;28;20051;-82
2022/04/26 14:57:09;;;;;;;4.20;1.70;;;21.40;45.70;;;;;;5071099;28;20044;-82
2022/04/26 14:59:46;;;;;;;2.33;1.15;;;21.60;46.00;;;;;;5073084;28;20547;-82
2022/04/26 15:02:17;;;;;;;4.20;0.95;;;21.70;46.30;;;;;;5072902;28;20414;-81
2022/04/26 15:04:51;;;;;;;5.85;1.02;;;21.20;46.00;;;;;;5071228;28;20044;-83
2022/04/26 15:07:17;;;;;;;1.85;0.90;;;21.10;46.70;;;;;;5041692;28;20502;-83
2022/04/26 15:10:03;;;;;;;4.20;1.52;;;21.00;46.50;;;;;;5054860;28;20045;-82
2022/04/26 15:18:21;;;;;;;3.72;1.27;;;18.40;50.60;;;;;;5052944;28;20399;-82
2022/04/26 15:21:18;;;;;;;3.47;0.90;;;17.30;52.20;;;;;;5049148;28;20099;-82
2022/04/26 15:23:53;;;;;;;4.95;1.58;;;17.50;53.50;;;;;;5014801;28;20127;-81
2022/04/26 15:26:22;;;;;;;6.13;2.55;;;18.00;51.50;;;;;;5052579;28;20063;-82
2022/04/26 15:28:47;;;;;;;4.20;1.35;;;17.80;52.10;;;;;;5066400;22;20037;-77
2022/04/26 15:31:18;;;;;;;4.80;1.27;;;18.20;51.70;;;;;;5031204;28;20564;-77
2022/04/26 15:33:46;;;;;;;8.75;1.50;;;18.50;51.20;;;;;;5002584;28;20038;-77
2022/04/26 15:36:11;;;;;;;3.50;2.20;;;18.50;51.00;;;;;;5018732;28;20045;-77
2022/04/26 15:38:37;;;;;;;3.38;1.45;;;18.50;51.10;;;;;;5023815;28;20429;-77
2022/04/26 15:41:05;;;;;;;5.63;2.38;;;18.30;51.10;;;;;;4995470;28;20041;-77
2022/04/26 15:43:32;;;;;;;2.40;2.20;;;18.00;51.20;;;;;;5011435;28;20050;-77
2022/04/26 15:45:58;;;;;;;5.68;1.60;;;17.90;51.50;;;;;;4994555;28;20120;-77
2022/04/26 15:48:25;;;;;;;2.65;0.98;;;17.80;51.60;;;;;;5012105;28;20113;-77
2022/04/26 15:50:51;;;;;;;3.40;1.23;;;18.10;51.60;;;;;;4998166;28;20035;-78
2022/04/26 15:53:16;;;;;;;4.65;1.00;;;18.40;51.30;;;;;;4993075;28;20492;-77
2022/04/26 15:55:42;;;;;;;2.78;1.30;;;18.80;51.10;;;;;;4992867;28;20038;-77
2022/04/26 15:58:08;;;;;;;1.85;0.93;;;18.50;50.70;;;;;;4998838;28;20399;-77
2022/04/26 16:00:34;;;;;;;2.17;0.80;;;18.60;50.40;;;;;;5011935;28;20053;-77
2022/04/26 16:03:01;;;;;;;2.75;0.90;;;18.80;49.80;;;;;;5012543;28;20149;-77
2022/04/26 16:05:28;;;;;;;4.57;2.03;;;18.80;49.60;;;;;;5011938;28;20037;-77
2022/04/26 16:07:53;;;;;;;2.60;1.27;;;18.20;49.80;;;;;;4994705;28;20503;-77
2022/04/26 16:21:16;;;;;;;4.47;2.72;;;17.80;51.60;;;;;;4991802;28;20094;-78
2022/04/26 16:23:42;;;;;;;5.05;3.55;;;17.40;51.20;;;;;;4993603;28;20044;-78
2022/04/26 16:26:07;;;;;;;6.38;3.45;;;17.50;52.30;;;;;;5001558;28;20069;-78
2022/04/26 16:28:34;;;;;;;5.07;2.78;;;17.30;53.00;;;;;;4998140;28;20428;-78
2022/04/26 16:31:00;;;;;;;6.22;3.40;;;17.50;53.30;;;;;;4991329;28;20049;-78
2022/04/26 16:33:26;;;;;;;4.07;2.50;;;17.80;52.80;;;;;;4991452;28;20034;-78
2022/04/26 16:35:53;;;;;;;2.53;1.08;;;18.20;52.70;;;;;;4991349;28;20046;-78
2022/04/26 16:38:19;;;;;;;3.83;1.63;;;18.50;52.40;;;;;;4991225;28;20039;-78
2022/04/26 16:40:46;;;;;;;3.03;1.00;;;18.90;51.00;;;;;;5008428;28;20129;-78
2022/04/26 16:43:18;;;;;;;4.00;0.82;;;19.10;50.20;;;;;;4987191;28;20507;-78
2022/04/26 16:45:49;;;;;;;2.03;1.00;;;19.00;49.00;;;;;;5010392;28;20041;-78
2022/04/26 16:48:15;;;;;;;4.25;2.08;;;18.30;50.70;;;;;;5010492;28;20096;-78
2022/04/26 16:50:42;;;;;;;3.78;0.95;;;17.70;51.70;;;;;;5011128;28;20038;-78
2022/04/26 16:53:07;;;;;;;3.40;1.08;;;17.00;52.50;;;;;;5011702;28;20046;-78
2022/04/26 16:55:33;;;;;;;5.13;1.15;;;15.70;54.30;;;;;;5011783;28;20113;-78
2022/04/26 16:58:01;;;;;;;3.10;1.00;;;14.80;57.20;;;;;;5010467;28;20042;-77
2022/04/26 17:00:28;;;;;;;4.40;1.98;;;14.00;61.40;;;;;;5012778;28;20439;-77
2022/04/26 17:02:55;;;;;;;3.78;1.83;;;13.60;64.80;;;;;;5012100;28;20038;-77
2022/04/26 17:05:22;;;;;;;3.40;1.13;;;13.30;67.70;;;;;;5012328;28;20086;-77
2022/04/26 17:07:49;;;;;;;3.50;0.80;;;13.00;71.20;;;;;;5009926;28;20042;-77
2022/04/26 17:10:15;;;;;;;2.60;1.10;;;12.80;74.70;;;;;;5002832;28;20473;-77
2022/04/26 17:12:41;;;;;;;5.72;1.95;;;12.60;75.30;;;;;;4992476;28;20424;-77
2022/04/26 17:15:07;;;;;;;3.20;0.95;;;12.70;75.50;;;;;;4975343;28;20117;-78